Time;durP1;ratioP1;P1;durP2;ratioP2;P2;SDS_P1;SDS_P2;PMS_P1;PMS_P2;Temp;Humidity;BMP_temperature;BMP_pressure;BME280_temperature;BME280_humidity;BME280_pressure;Samples;Min_cycle;Max_cycle;Signal;HPM_P1;HPM_P2
2023/06/17 00:02:20;;;;;;;13.38;9.30;;;16.70;99.90;;;;;;5017405;28;20044;-70
2023/06/17 00:04:46;;;;;;;14.88;11.57;;;17.00;99.90;;;;;;5017073;28;20451;-69
2023/06/17 00:07:12;;;;;;;14.02;10.60;;;16.70;99.90;;;;;;5000370;28;20041;-70
2023/06/17 00:09:41;;;;;;;17.25;10.85;;;16.60;99.90;;;;;;5000117;28;20497;-70
2023/06/17 00:12:07;;;;;;;13.35;9.93;;;16.50;99.90;;;;;;5016948;28;20120;-70
2023/06/17 00:14:33;;;;;;;15.18;10.27;;;16.60;99.90;;;;;;5017287;28;20048;-70
2023/06/17 00:17:00;;;;;;;12.50;10.10;;;17.10;99.90;;;;;;5016669;28;20033;-69
2023/06/17 00:19:27;;;;;;;14.20;10.93;;;16.70;99.90;;;;;;5000343;28;20049;-69
2023/06/17 00:21:53;;;;;;;18.25;11.45;;;17.60;99.90;;;;;;5000607;28;20033;-70
2023/06/17 00:24:19;;;;;;;14.95;10.40;;;16.70;99.90;;;;;;5016988;28;20041;-70
2023/06/17 00:26:46;;;;;;;13.60;10.88;;;16.60;99.90;;;;;;5034218;28;20121;-70
2023/06/17 00:29:12;;;;;;;15.02;10.93;;;16.60;99.90;;;;;;5033479;28;20041;-70
2023/06/17 00:31:37;;;;;;;14.55;9.23;;;17.20;99.90;;;;;;5017084;28;20548;-70
2023/06/17 00:34:03;;;;;;;18.33;10.63;;;16.50;99.90;;;;;;5016899;28;20551;-70
2023/06/17 00:36:29;;;;;;;14.70;10.35;;;;;;;;;;5016157;28;20558;-70
2023/06/17 00:38:55;;;;;;;14.93;9.73;;;16.70;99.90;;;;;;5015951;28;20148;-70
2023/06/17 00:41:20;;;;;;;14.10;9.93;;;16.60;99.90;;;;;;5016843;28;20064;-69
2023/06/17 00:43:46;;;;;;;15.32;10.40;;;16.60;99.90;;;;;;5015351;28;20048;-70
2023/06/17 00:46:38;;;;;;;19.00;10.73;;;16.60;99.90;;;;;;5016139;28;20041;-70
2023/06/17 00:49:06;;;;;;;18.02;10.95;;;16.60;99.90;;;;;;5016364;28;20041;-70
2023/06/17 00:51:32;;;;;;;17.50;10.98;;;16.50;99.90;;;;;;5016762;28;20045;-70
2023/06/17 00:53:59;;;;;;;18.08;10.93;;;16.70;99.90;;;;;;5016191;28;20047;-70
2023/06/17 00:56:26;;;;;;;19.20;11.18;;;16.50;99.90;;;;;;5015864;28;20041;-69
2023/06/17 00:58:54;;;;;;;17.88;11.25;;;16.70;99.90;;;;;;5016191;28;20041;-70
2023/06/17 01:01:19;;;;;;;13.63;11.80;;;17.80;99.90;;;;;;5016556;28;20041;-70
2023/06/17 01:03:46;;;;;;;19.00;12.57;;;16.40;99.90;;;;;;5015987;28;20060;-70
2023/06/17 01:06:19;;;;;;;18.65;10.73;;;16.30;99.90;;;;;;5015665;28;20048;-70
2023/06/17 01:08:47;;;;;;;;;;;16.60;99.90;;;;;;5016303;28;20559;-70
2023/06/17 01:11:16;;;;;;;15.85;11.05;;;16.50;99.90;;;;;;5016039;28;19968;-70
2023/06/17 01:13:43;;;;;;;17.88;12.55;;;16.70;99.90;;;;;;5015836;28;20125;-70
2023/06/17 01:16:10;;;;;;;17.50;12.25;;;16.70;99.90;;;;;;5015569;28;20045;-70
2023/06/17 01:18:37;;;;;;;21.65;12.98;;;16.70;99.90;;;;;;4999430;28;20106;-70
2023/06/17 01:21:03;;;;;;;17.58;12.15;;;16.70;99.90;;;;;;5015813;28;20049;-70
2023/06/17 01:23:37;;;;;;;20.67;13.07;;;16.70;99.90;;;;;;5015418;28;20116;-70
2023/06/17 01:26:04;;;;;;;21.48;13.73;;;16.50;99.90;;;;;;4998989;28;20052;-70
2023/06/17 01:28:30;;;;;;;20.77;13.02;;;17.50;99.90;;;;;;4999193;28;20045;-70
2023/06/17 01:30:56;;;;;;;18.50;13.10;;;16.70;99.90;;;;;;5015921;28;20064;-70
2023/06/17 01:33:25;;;;;;;17.95;14.98;;;16.60;99.90;;;;;;5033385;28;20065;-70
2023/06/17 01:36:12;;;;;;;21.10;14.52;;;16.60;99.90;;;;;;5015297;28;20038;-70
2023/06/17 01:38:54;;;;;;;21.52;15.27;;;17.60;99.90;;;;;;5015420;28;20075;-70
2023/06/17 01:41:25;;;;;;;23.15;15.93;;;16.60;99.90;;;;;;5015867;28;20417;-70
2023/06/17 01:43:53;;;;;;;26.73;16.20;;;16.80;99.90;;;;;;5015524;28;20497;-70
2023/06/17 01:46:19;;;;;;;19.60;14.60;;;16.80;99.90;;;;;;5014888;28;20121;-70
2023/06/17 01:48:45;;;;;;;20.30;15.68;;;17.20;99.90;;;;;;5015142;28;20034;-69
2023/06/17 01:51:11;;;;;;;17.30;14.23;;;16.70;99.90;;;;;;5015027;28;20044;-70
2023/06/17 01:53:36;;;;;;;21.35;16.35;;;16.80;99.90;;;;;;5033026;28;20395;-70
2023/06/17 01:56:02;;;;;;;23.17;16.13;;;17.40;99.90;;;;;;5015357;28;20045;-70
2023/06/17 01:58:28;;;;;;;23.80;15.23;;;;;;;;;;5015281;28;20038;-70
2023/06/17 02:00:54;;;;;;;23.13;16.38;;;16.70;99.90;;;;;;5016007;28;20477;-70
2023/06/17 02:03:19;;;;;;;20.83;15.63;;;16.80;99.90;;;;;;5015523;28;20046;-70
2023/06/17 02:05:45;;;;;;;22.05;14.93;;;16.50;99.90;;;;;;5015126;28;20083;-70
2023/06/17 02:08:11;;;;;;;21.92;16.67;;;16.50;99.90;;;;;;5014863;28;20041;-70
2023/06/17 02:10:38;;;;;;;26.65;17.88;;;16.60;99.90;;;;;;5015025;28;20084;-69
2023/06/17 02:13:04;;;;;;;30.73;19.27;;;16.60;99.90;;;;;;5015099;28;20037;-69
2023/06/17 02:15:32;;;;;;;34.38;18.63;;;16.40;99.90;;;;;;5014882;28;20038;-70
2023/06/17 02:17:58;;;;;;;25.60;17.75;;;16.40;99.90;;;;;;5014620;28;20053;-68
2023/06/17 02:20:24;;;;;;;28.38;18.42;;;;;;;;;;5014680;28;20584;-69
2023/06/17 02:22:50;;;;;;;23.83;17.13;;;16.30;99.90;;;;;;5014846;28;20401;-69
2023/06/17 02:25:16;;;;;;;28.13;17.92;;;16.50;99.90;;;;;;5014644;28;20038;-70
2023/06/17 02:27:42;;;;;;;25.45;17.30;;;16.20;99.90;;;;;;5014256;28;20077;-70
2023/06/17 02:30:09;;;;;;;27.70;17.63;;;16.20;99.90;;;;;;5014349;28;20484;-70
2023/06/17 02:32:35;;;;;;;38.00;18.20;;;16.40;99.90;;;;;;5014584;28;20041;-70
2023/06/17 02:35:02;;;;;;;29.50;19.08;;;16.30;99.90;;;;;;5014511;28;20044;-70
2023/06/17 02:37:28;;;;;;;32.13;18.92;;;16.10;99.90;;;;;;4997984;28;20048;-70
2023/06/17 02:39:54;;;;;;;28.95;17.85;;;16.40;99.90;;;;;;5014587;28;20049;-70
2023/06/17 02:42:20;;;;;;;23.52;17.27;;;;;;;;;;5014324;28;20033;-70
2023/06/17 02:44:46;;;;;;;26.40;18.85;;;16.40;99.90;;;;;;5031626;28;20045;-70
2023/06/17 02:47:11;;;;;;;29.65;18.92;;;16.50;99.90;;;;;;5014330;28;20042;-70
2023/06/17 02:49:37;;;;;;;22.42;18.90;;;16.40;99.90;;;;;;5014697;28;20037;-70
2023/06/17 02:52:03;;;;;;;27.40;19.15;;;16.40;99.90;;;;;;5015340;28;20034;-70
2023/06/17 02:54:28;;;;;;;28.25;19.30;;;16.30;99.90;;;;;;5032762;28;20210;-70
2023/06/17 02:56:55;;;;;;;26.13;19.77;;;16.40;99.90;;;;;;5014307;28;20413;-70
2023/06/17 02:59:21;;;;;;;31.00;21.13;;;16.20;99.90;;;;;;4997677;28;20520;-70
2023/06/17 03:01:47;;;;;;;29.55;20.90;;;16.20;99.90;;;;;;5014213;28;20076;-70
2023/06/17 03:04:13;;;;;;;31.95;22.08;;;16.10;99.90;;;;;;5014478;28;20081;-70
2023/06/17 03:06:40;;;;;;;30.25;21.02;;;16.30;99.90;;;;;;5013699;28;20084;-70
2023/06/17 03:09:08;;;;;;;32.08;21.40;;;16.50;99.90;;;;;;5013796;28;20045;-70
2023/06/17 03:11:33;;;;;;;31.52;20.92;;;17.20;99.90;;;;;;4997987;28;20404;-70
2023/06/17 03:13:59;;;;;;;32.42;20.75;;;16.20;99.90;;;;;;5031595;28;20112;-70
2023/06/17 03:16:25;;;;;;;29.85;20.60;;;16.20;99.90;;;;;;5013741;28;20046;-69
2023/06/17 03:18:51;;;;;;;30.75;20.75;;;16.20;99.90;;;;;;5013763;28;20563;-69
2023/06/17 03:21:17;;;;;;;35.03;23.48;;;16.20;99.90;;;;;;5014108;28;20440;-69
2023/06/17 03:23:42;;;;;;;34.78;21.92;;;16.10;99.90;;;;;;5013731;28;20033;-70
2023/06/17 03:26:11;;;;;;;33.50;21.70;;;15.90;99.90;;;;;;5013236;28;20033;-69
2023/06/17 03:28:36;;;;;;;30.48;21.02;;;16.10;99.90;;;;;;5013668;28;20041;-69
2023/06/17 03:31:03;;;;;;;29.83;19.92;;;16.20;99.90;;;;;;4999169;28;20489;-69
2023/06/17 03:33:28;;;;;;;30.20;20.98;;;16.20;99.90;;;;;;5017755;28;20041;-71
2023/06/17 03:35:55;;;;;;;34.25;20.55;;;16.20;99.90;;;;;;5017397;28;20041;-69
2023/06/17 03:38:21;;;;;;;26.70;20.35;;;16.30;99.90;;;;;;5017768;28;20056;-69
2023/06/17 03:40:47;;;;;;;28.80;20.35;;;16.20;99.90;;;;;;5017676;28;20406;-70
2023/06/17 03:43:13;;;;;;;25.77;19.20;;;16.00;99.90;;;;;;5017931;28;20661;-69
2023/06/17 03:45:39;;;;;;;33.35;20.35;;;16.20;99.90;;;;;;5000900;28;20056;-69
2023/06/17 03:48:05;;;;;;;26.55;20.67;;;16.10;99.90;;;;;;5000973;28;20083;-68
2023/06/17 03:50:31;;;;;;;28.45;19.80;;;16.10;99.90;;;;;;5001133;28;20050;-69
2023/06/17 03:52:57;;;;;;;27.35;20.35;;;16.30;99.90;;;;;;5017425;28;20048;-69
2023/06/17 03:55:24;;;;;;;30.67;22.50;;;16.10;99.90;;;;;;5018149;28;20525;-69
2023/06/17 03:57:50;;;;;;;30.40;20.88;;;16.30;99.90;;;;;;5017566;28;20480;-69
2023/06/17 04:00:16;;;;;;;31.40;21.65;;;16.10;99.90;;;;;;5000866;28;20041;-70
2023/06/17 04:02:45;;;;;;;31.65;22.35;;;;;;;;;;5017298;28;20042;-69
2023/06/17 04:05:12;;;;;;;33.13;22.52;;;16.20;99.90;;;;;;5017320;28;20125;-69
2023/06/17 04:07:38;;;;;;;31.10;21.63;;;16.20;99.90;;;;;;5000347;28;20051;-70
2023/06/17 04:10:07;;;;;;;29.95;22.40;;;16.40;99.90;;;;;;5016923;28;20044;-69
2023/06/17 04:12:34;;;;;;;32.50;22.55;;;16.30;99.90;;;;;;5017303;28;20033;-70
2023/06/17 04:15:00;;;;;;;32.10;22.98;;;16.20;99.90;;;;;;5017053;28;20069;-70
2023/06/17 04:17:25;;;;;;;32.53;23.33;;;16.40;99.90;;;;;;5016715;28;20488;-69
2023/06/17 04:19:54;;;;;;;32.30;22.27;;;16.30;99.90;;;;;;5016724;28;20030;-69
2023/06/17 04:22:20;;;;;;;32.08;22.02;;;16.30;99.90;;;;;;5016847;28;20071;-69
2023/06/17 04:24:46;;;;;;;29.65;21.92;;;16.30;99.90;;;;;;5016898;28;20406;-69
2023/06/17 04:27:11;;;;;;;33.85;21.38;;;16.30;99.90;;;;;;5016361;28;20041;-69
2023/06/17 04:29:37;;;;;;;32.35;22.13;;;16.40;99.90;;;;;;5034239;28;20040;-69
2023/06/17 04:32:03;;;;;;;29.30;20.50;;;16.30;99.90;;;;;;5016835;28;20049;-69
2023/06/17 04:34:29;;;;;;;26.90;21.45;;;16.40;99.90;;;;;;5034506;28;20034;-68
2023/06/17 04:36:58;;;;;;;32.75;20.05;;;16.60;99.90;;;;;;4999851;28;20069;-69
2023/06/17 04:39:26;;;;;;;29.42;21.48;;;16.50;99.90;;;;;;5016510;28;20034;-69
2023/06/17 04:41:53;;;;;;;28.08;21.23;;;16.40;99.90;;;;;;4999817;28;20045;-68
2023/06/17 04:44:19;;;;;;;27.38;19.23;;;16.70;99.90;;;;;;5016486;28;20052;-69
2023/06/17 04:46:45;;;;;;;22.92;16.92;;;16.40;99.90;;;;;;5033857;28;20413;-69
2023/06/17 04:49:11;;;;;;;27.30;19.23;;;16.60;99.90;;;;;;5016301;28;20092;-69
2023/06/17 04:51:40;;;;;;;26.60;17.65;;;16.40;99.90;;;;;;5016334;28;20069;-69
2023/06/17 04:54:06;;;;;;;21.58;16.08;;;16.50;99.90;;;;;;5016417;28;20520;-70
2023/06/17 04:56:32;;;;;;;21.02;16.85;;;16.50;99.90;;;;;;5016202;28;20033;-69
2023/06/17 04:58:58;;;;;;;22.67;15.98;;;16.40;99.90;;;;;;5016205;28;20041;-69
2023/06/17 05:01:23;;;;;;;26.48;17.15;;;16.50;99.90;;;;;;5034121;28;20040;-69
2023/06/17 05:03:49;;;;;;;25.33;17.88;;;16.60;99.90;;;;;;5016216;28;20071;-69
2023/06/17 05:06:14;;;;;;;24.08;15.50;;;16.70;99.90;;;;;;5015890;28;20029;-69
2023/06/17 05:08:40;;;;;;;20.83;15.13;;;;;;;;;;5015975;28;20492;-70
2023/06/17 05:11:06;;;;;;;21.45;14.45;;;16.80;99.90;;;;;;5016404;28;20131;-70
2023/06/17 05:13:32;;;;;;;22.30;16.20;;;16.70;99.90;;;;;;5015694;28;20034;-70
2023/06/17 05:15:58;;;;;;;23.48;13.68;;;;;;;;;;5015592;28;20429;-69
2023/06/17 05:18:23;;;;;;;18.17;13.80;;;16.70;99.90;;;;;;5015493;28;20050;-69
2023/06/17 05:20:49;;;;;;;22.83;14.57;;;16.70;99.90;;;;;;5015930;28;20436;-70
2023/06/17 05:23:14;;;;;;;23.58;15.85;;;16.90;99.90;;;;;;5015888;28;20081;-69
2023/06/17 05:25:40;;;;;;;22.80;14.13;;;17.00;99.90;;;;;;5015574;28;20052;-70
2023/06/17 05:28:06;;;;;;;24.58;15.80;;;16.80;99.90;;;;;;5015861;28;20493;-69
2023/06/17 05:30:32;;;;;;;21.02;15.63;;;16.70;99.90;;;;;;5016192;28;20069;-70
2023/06/17 05:32:57;;;;;;;20.83;13.50;;;16.80;99.90;;;;;;5015646;28;20077;-69
2023/06/17 05:35:23;;;;;;;15.98;12.80;;;16.80;99.90;;;;;;5015599;28;20521;-69
2023/06/17 05:37:49;;;;;;;24.13;14.07;;;;;;;;;;5014697;28;20037;-70
2023/06/17 05:40:15;;;;;;;15.85;12.02;;;;;;;;;;5015447;28;20045;-69
2023/06/17 05:42:40;;;;;;;22.80;13.80;;;16.80;99.90;;;;;;5015566;28;20073;-69
2023/06/17 05:45:07;;;;;;;17.95;14.15;;;16.80;99.90;;;;;;5015509;28;20092;-69
2023/06/17 05:47:32;;;;;;;24.35;14.77;;;17.00;99.90;;;;;;5014776;28;20044;-71
2023/06/17 05:49:58;;;;;;;20.65;12.85;;;;;;;;;;5024499;28;20049;-69
2023/06/17 05:52:24;;;;;;;21.73;13.48;;;17.00;99.90;;;;;;5011275;28;20507;-66
2023/06/17 05:54:50;;;;;;;25.20;14.25;;;;;;;;;;5010384;28;20029;-69
2023/06/17 05:57:16;;;;;;;19.00;12.50;;;17.00;99.90;;;;;;5010769;28;20148;-69
2023/06/17 05:59:41;;;;;;;21.85;13.70;;;16.80;99.90;;;;;;5011182;28;20556;-69
2023/06/17 06:02:07;;;;;;;19.27;14.18;;;;;;;;;;5028329;28;20080;-68
2023/06/17 06:04:33;;;;;;;23.88;15.20;;;16.70;99.90;;;;;;5009643;28;20049;-69
2023/06/17 06:06:58;;;;;;;19.90;14.07;;;16.90;99.90;;;;;;4993724;28;20056;-69
2023/06/17 06:09:24;;;;;;;21.70;13.60;;;16.80;99.90;;;;;;4994335;28;20056;-70
2023/06/17 06:11:50;;;;;;;22.70;13.60;;;16.70;99.90;;;;;;5011226;28;20525;-68
2023/06/17 06:14:15;;;;;;;20.75;15.50;;;17.10;99.90;;;;;;5010259;28;20034;-69
2023/06/17 06:16:41;;;;;;;26.80;16.58;;;;;;;;;;5010362;28;20102;-69
2023/06/17 06:19:07;;;;;;;23.63;15.95;;;17.00;99.90;;;;;;4994114;28;20090;-70
2023/06/17 06:21:33;;;;;;;29.48;19.30;;;;;;;;;;5008884;28;20402;-70
2023/06/17 06:23:59;;;;;;;28.05;20.77;;;17.00;99.90;;;;;;5009895;28;20045;-69
2023/06/17 06:26:26;;;;;;;27.00;18.35;;;;;;;;;;4993839;28;20114;-70
2023/06/17 06:28:52;;;;;;;29.15;19.92;;;17.40;99.90;;;;;;5010009;28;20049;-69
2023/06/17 06:31:18;;;;;;;23.02;17.80;;;17.30;99.90;;;;;;4993986;28;20064;-69
2023/06/17 06:33:44;;;;;;;23.13;17.77;;;;;;;;;;4997272;28;20060;-69
2023/06/17 06:36:11;;;;;;;23.80;17.55;;;;;;;;;;5010534;28;20103;-69
2023/06/17 06:38:36;;;;;;;27.25;15.48;;;17.30;99.90;;;;;;5010543;28;20049;-65
2023/06/17 06:41:02;;;;;;;23.92;15.70;;;;;;;;;;5035192;28;20067;-70
2023/06/17 06:43:29;;;;;;;22.25;15.57;;;17.50;99.90;;;;;;5010566;28;20169;-69
2023/06/17 06:45:55;;;;;;;24.02;15.70;;;17.60;99.90;;;;;;5009233;28;20164;-70
2023/06/17 06:48:20;;;;;;;23.20;15.35;;;17.70;99.90;;;;;;5009270;28;20429;-69
2023/06/17 06:50:46;;;;;;;23.85;15.13;;;17.70;99.90;;;;;;5009812;28;20037;-69
2023/06/17 06:53:12;;;;;;;19.38;13.57;;;17.90;99.90;;;;;;5009440;28;20026;-69
2023/06/17 06:55:37;;;;;;;18.25;13.95;;;17.90;99.90;;;;;;5009406;28;20332;-70
2023/06/17 06:58:03;;;;;;;17.15;13.15;;;;;;;;;;5009248;28;20505;-70
2023/06/17 07:00:29;;;;;;;18.30;12.77;;;17.90;99.90;;;;;;4998842;28;20053;-71
2023/06/17 07:02:56;;;;;;;16.65;12.40;;;17.90;99.90;;;;;;5004832;28;20099;-70
2023/06/17 07:05:22;;;;;;;22.42;13.30;;;17.70;99.90;;;;;;5003413;28;20045;-69
2023/06/17 07:07:47;;;;;;;20.10;12.57;;;17.40;99.90;;;;;;5004239;28;20077;-70
2023/06/17 07:10:13;;;;;;;16.63;12.10;;;17.70;99.90;;;;;;5002590;28;20081;-70
2023/06/17 07:12:41;;;;;;;16.45;11.32;;;17.90;99.90;;;;;;5006534;28;20754;-69
2023/06/17 07:15:06;;;;;;;17.45;13.23;;;18.20;99.90;;;;;;5006898;28;20694;-69
2023/06/17 07:17:32;;;;;;;19.52;12.02;;;18.40;99.90;;;;;;5021927;28;20091;-70
2023/06/17 07:19:59;;;;;;;15.93;11.27;;;;;;;;;;5022112;28;20505;-70
2023/06/17 07:22:25;;;;;;;16.17;10.77;;;18.10;99.90;;;;;;5001342;28;20045;-66
2023/06/17 07:24:50;;;;;;;16.70;11.02;;;18.50;99.90;;;;;;5006037;28;20044;-69
2023/06/17 07:27:16;;;;;;;20.50;13.30;;;18.60;99.90;;;;;;5002209;28;20088;-69
2023/06/17 07:29:42;;;;;;;17.35;12.02;;;18.40;99.90;;;;;;5006234;28;20533;-69
2023/06/17 07:32:07;;;;;;;17.48;12.00;;;18.50;99.90;;;;;;5003144;28;20529;-69
2023/06/17 07:34:34;;;;;;;17.27;11.15;;;18.40;99.90;;;;;;4983996;28;20038;-69
2023/06/17 07:37:00;;;;;;;18.45;12.70;;;18.60;99.90;;;;;;5004287;28;20072;-70
2023/06/17 07:39:26;;;;;;;20.35;12.32;;;;;;;;;;5018464;28;20076;-67
2023/06/17 07:41:51;;;;;;;16.98;11.43;;;19.50;99.90;;;;;;5023562;28;20041;-70
2023/06/17 07:44:17;;;;;;;13.35;10.63;;;19.50;99.90;;;;;;5002621;28;20703;-70
2023/06/17 07:46:43;;;;;;;18.13;11.75;;;19.90;99.90;;;;;;5008084;28;20049;-70
2023/06/17 07:49:09;;;;;;;17.38;11.00;;;19.10;99.90;;;;;;5007899;28;20116;-67
2023/06/17 07:51:35;;;;;;;19.27;10.75;;;19.30;99.90;;;;;;5008435;28;20098;-70
2023/06/17 07:54:00;;;;;;;15.40;11.50;;;20.40;99.90;;;;;;5012228;28;20038;-69
2023/06/17 07:56:27;;;;;;;16.60;10.80;;;19.80;99.90;;;;;;5012692;28;20051;-70
2023/06/17 07:58:53;;;;;;;16.52;11.27;;;19.50;99.90;;;;;;4996587;28;20500;-70
2023/06/17 08:01:20;;;;;;;18.23;12.18;;;19.50;99.90;;;;;;5010413;28;20067;-69
2023/06/17 08:03:46;;;;;;;18.45;12.15;;;19.60;99.90;;;;;;5012849;28;20052;-69
2023/06/17 08:06:14;;;;;;;15.07;11.15;;;20.60;99.90;;;;;;4996215;28;20041;-69
2023/06/17 08:08:40;;;;;;;19.50;12.88;;;19.90;99.90;;;;;;4996481;28;20045;-69
2023/06/17 08:11:06;;;;;;;18.73;10.93;;;20.20;99.90;;;;;;4996944;28;20165;-70
2023/06/17 08:13:32;;;;;;;19.15;13.27;;;20.30;99.90;;;;;;5030788;28;20113;-69
2023/06/17 08:15:58;;;;;;;14.60;11.35;;;20.00;99.90;;;;;;5013008;28;20144;-69
2023/06/17 08:18:23;;;;;;;17.40;10.10;;;20.30;99.90;;;;;;5034698;28;20606;-69
2023/06/17 08:20:49;;;;;;;15.05;10.35;;;20.50;99.90;;;;;;5017356;28;20404;-69
2023/06/17 08:23:15;;;;;;;16.98;10.68;;;20.70;99.90;;;;;;5017021;28;20508;-69
2023/06/17 08:25:41;;;;;;;14.52;10.40;;;20.70;99.90;;;;;;5000268;28;20041;-69
2023/06/17 08:28:06;;;;;;;21.33;10.88;;;21.00;99.90;;;;;;5016873;28;20041;-69
2023/06/17 08:30:32;;;;;;;18.48;11.48;;;21.00;99.90;;;;;;5017152;28;20037;-69
2023/06/17 08:32:57;;;;;;;12.50;9.70;;;21.90;99.90;;;;;;5034219;28;20040;-70
2023/06/17 08:35:23;;;;;;;18.05;11.30;;;20.40;99.90;;;;;;5016079;28;20083;-69
2023/06/17 08:37:49;;;;;;;17.90;11.43;;;20.50;99.90;;;;;;5034163;28;20045;-69
2023/06/17 08:40:17;;;;;;;18.88;11.30;;;20.70;99.90;;;;;;5016496;28;20045;-69
2023/06/17 08:42:43;;;;;;;23.90;10.82;;;21.10;99.90;;;;;;5016686;28;20044;-69
2023/06/17 08:45:09;;;;;;;12.40;9.48;;;21.50;99.90;;;;;;5016478;28;20041;-69
2023/06/17 08:47:35;;;;;;;16.17;10.98;;;21.20;99.90;;;;;;5015655;28;20452;-69
2023/06/17 08:50:02;;;;;;;18.60;11.23;;;21.20;99.90;;;;;;5015378;28;20069;-70
2023/06/17 08:52:31;;;;;;;15.93;11.02;;;21.20;99.90;;;;;;5016311;28;20041;-69
2023/06/17 08:54:58;;;;;;;16.15;10.15;;;21.40;99.90;;;;;;5015640;28;20525;-70
2023/06/17 08:57:26;;;;;;;14.98;10.43;;;20.90;99.90;;;;;;5014525;28;20049;-69
2023/06/17 08:59:52;;;;;;;18.73;11.57;;;21.40;99.90;;;;;;5013111;28;20037;-69
2023/06/17 09:02:18;;;;;;;15.85;11.38;;;21.20;99.90;;;;;;5015622;28;20116;-70
2023/06/17 09:04:44;;;;;;;15.18;10.70;;;21.50;99.90;;;;;;5015460;28;20052;-69
2023/06/17 09:07:10;;;;;;;17.20;11.63;;;21.90;99.90;;;;;;5014987;28;20115;-69
2023/06/17 09:09:36;;;;;;;18.33;11.35;;;22.10;99.90;;;;;;5053600;22;20458;-69
2023/06/17 09:12:06;;;;;;;21.02;11.38;;;21.70;99.90;;;;;;5073318;28;20040;-67
2023/06/17 09:14:32;;;;;;;15.15;10.65;;;21.60;99.90;;;;;;5055471;28;20029;-67
2023/06/17 09:16:59;;;;;;;16.98;10.07;;;22.10;99.90;;;;;;5072051;28;20041;-67
2023/06/17 09:19:25;;;;;;;17.55;11.95;;;22.40;99.90;;;;;;5066674;28;20049;-67
2023/06/17 09:21:51;;;;;;;17.92;10.57;;;21.80;99.90;;;;;;5052526;28;20094;-67
2023/06/17 09:24:18;;;;;;;20.55;11.90;;;22.00;99.90;;;;;;5051225;28;20037;-67
2023/06/17 09:26:44;;;;;;;20.08;10.88;;;22.10;99.90;;;;;;5051906;28;20044;-67
2023/06/17 09:29:12;;;;;;;14.55;10.70;;;22.70;99.90;;;;;;5050533;28;20123;-67
2023/06/17 09:32:04;;;;;;;17.65;10.48;;;22.20;99.90;;;;;;5052217;28;20045;-67
2023/06/17 09:34:30;;;;;;;15.30;9.88;;;22.50;99.90;;;;;;5051037;28;20544;-67
2023/06/17 09:37:00;;;;;;;17.63;10.45;;;23.00;99.90;;;;;;5051984;28;20041;-68
2023/06/17 09:39:33;;;;;;;16.80;10.43;;;22.60;99.90;;;;;;5051891;28;20113;-68
2023/06/17 09:42:09;;;;;;;14.18;10.10;;;23.20;99.90;;;;;;5052137;28;20044;-67
2023/06/17 09:44:37;;;;;;;15.55;9.63;;;23.30;99.90;;;;;;5051678;28;20128;-67
2023/06/17 09:47:11;;;;;;;18.17;12.40;;;22.60;99.90;;;;;;5033348;28;20555;-67
2023/06/17 09:49:36;;;;;;;15.68;10.77;;;22.80;99.90;;;;;;5034301;28;20029;-68
2023/06/17 09:52:05;;;;;;;17.50;10.43;;;22.80;99.90;;;;;;5050849;28;20055;-68
2023/06/17 09:54:32;;;;;;;18.08;10.73;;;22.70;99.90;;;;;;5034433;28;20043;-68
2023/06/17 09:57:01;;;;;;;15.07;10.43;;;23.20;99.90;;;;;;5031666;28;20076;-68
2023/06/17 09:59:28;;;;;;;14.02;10.32;;;23.00;99.90;;;;;;5050855;28;20041;-67
2023/06/17 10:01:54;;;;;;;14.25;9.93;;;23.00;99.90;;;;;;5050659;28;20059;-68
2023/06/17 10:04:20;;;;;;;13.70;10.07;;;23.20;99.90;;;;;;5051181;28;20064;-69
2023/06/17 10:06:50;;;;;;;13.93;10.98;;;23.50;99.90;;;;;;5051229;28;20504;-68
2023/06/17 10:09:15;;;;;;;14.45;10.45;;;23.10;99.90;;;;;;5050578;28;20404;-69
2023/06/17 10:11:45;;;;;;;15.90;9.85;;;23.70;99.90;;;;;;5050876;28;20128;-69
2023/06/17 10:14:22;;;;;;;14.85;10.20;;;23.70;99.90;;;;;;5051549;28;20037;-69
2023/06/17 10:16:50;;;;;;;13.60;9.63;;;23.30;99.90;;;;;;5050129;28;20678;-69
2023/06/17 10:19:24;;;;;;;13.15;8.35;;;23.40;99.90;;;;;;5050879;28;20090;-70
2023/06/17 10:21:53;;;;;;;19.10;10.23;;;23.60;99.90;;;;;;5051289;28;20080;-70
2023/06/17 10:24:19;;;;;;;12.70;8.50;;;23.50;99.90;;;;;;5034778;28;20131;-71
2023/06/17 10:26:50;;;;;;;13.35;9.63;;;23.60;99.90;;;;;;5034074;28;20045;-70
2023/06/17 10:29:16;;;;;;;11.27;8.02;;;23.50;99.90;;;;;;5052036;28;20041;-69
2023/06/17 10:31:42;;;;;;;14.63;9.05;;;23.40;99.90;;;;;;5052561;28;20578;-70
2023/06/17 10:34:21;;;;;;;16.23;10.23;;;23.60;99.90;;;;;;5050910;28;20120;-69
2023/06/17 10:37:08;;;;;;;13.75;9.32;;;23.50;99.90;;;;;;5050538;28;20512;-70
2023/06/17 10:39:34;;;;;;;12.52;8.55;;;23.70;99.90;;;;;;5051450;28;20051;-69
2023/06/17 10:42:00;;;;;;;11.05;8.27;;;23.70;99.90;;;;;;5050844;28;20471;-69
2023/06/17 10:44:34;;;;;;;12.90;9.20;;;24.00;99.90;;;;;;5052070;28;20033;-69
2023/06/17 10:47:14;;;;;;;10.95;7.88;;;23.80;99.90;;;;;;5050572;28;20044;-69
2023/06/17 10:49:41;;;;;;;14.52;8.63;;;24.20;99.90;;;;;;5050471;28;20154;-69
2023/06/17 10:52:12;;;;;;;10.93;7.80;;;23.90;99.90;;;;;;5033857;28;20048;-69
2023/06/17 10:54:50;;;;;;;11.75;7.82;;;24.20;99.90;;;;;;5050677;28;20115;-69
2023/06/17 10:57:16;;;;;;;9.20;6.40;;;24.20;99.90;;;;;;5050409;28;20382;-70
2023/06/17 10:59:41;;;;;;;15.23;8.00;;;24.60;99.90;;;;;;5050602;28;20087;-70
2023/06/17 11:02:08;;;;;;;11.23;7.75;;;24.40;99.90;;;;;;5050588;28;20120;-70
2023/06/17 11:04:35;;;;;;;13.95;7.18;;;24.60;99.90;;;;;;5050367;28;20085;-69
2023/06/17 11:07:07;;;;;;;12.50;8.00;;;24.30;99.90;;;;;;5050004;28;20048;-70
2023/06/17 11:09:34;;;;;;;8.73;6.97;;;24.60;99.90;;;;;;5050095;28;20455;-70
2023/06/17 11:12:02;;;;;;;10.38;6.97;;;24.90;99.90;;;;;;5033774;28;20068;-70
2023/06/17 11:14:30;;;;;;;12.50;7.38;;;24.60;99.90;;;;;;5033794;28;20033;-69
2023/06/17 11:16:56;;;;;;;9.20;7.15;;;24.80;99.90;;;;;;5049772;28;20043;-70
2023/06/17 11:19:22;;;;;;;8.80;6.90;;;24.90;99.90;;;;;;5050025;28;20056;-69
2023/06/17 11:22:07;;;;;;;13.27;7.03;;;25.40;99.90;;;;;;5050551;28;20623;-69
2023/06/17 11:24:34;;;;;;;12.10;7.65;;;25.00;99.90;;;;;;5049822;28;20166;-70
2023/06/17 11:27:01;;;;;;;12.15;7.93;;;24.90;99.90;;;;;;5049155;28;20124;-70
2023/06/17 11:29:28;;;;;;;13.07;7.10;;;25.30;99.90;;;;;;5049373;28;20473;-70
2023/06/17 11:31:58;;;;;;;13.52;8.10;;;25.80;99.90;;;;;;5050001;28;20043;-69
2023/06/17 11:34:23;;;;;;;10.38;6.70;;;25.20;99.90;;;;;;5033051;28;20075;-69
2023/06/17 11:36:53;;;;;;;10.73;6.88;;;25.60;99.90;;;;;;5049330;28;20061;-70
2023/06/17 11:39:22;;;;;;;9.90;6.97;;;25.80;99.90;;;;;;5049859;28;20052;-70
2023/06/17 11:41:52;;;;;;;13.05;7.57;;;25.70;99.90;;;;;;5049993;28;20037;-70
2023/06/17 11:44:20;;;;;;;13.95;8.48;;;25.80;99.90;;;;;;5049849;28;20073;-71
2023/06/17 11:46:49;;;;;;;15.43;8.07;;;25.80;99.90;;;;;;5050620;28;20033;-70
2023/06/17 11:49:15;;;;;;;12.52;8.48;;;26.00;99.90;;;;;;5049938;28;20171;-70
2023/06/17 11:51:48;;;;;;;17.77;8.02;;;25.50;99.90;;;;;;5051576;28;20471;-70
2023/06/17 11:54:13;;;;;;;12.38;8.00;;;25.70;99.90;;;;;;5054592;28;20118;-70
2023/06/17 11:56:40;;;;;;;11.00;7.05;;;26.20;99.90;;;;;;5053469;28;20095;-70
2023/06/17 11:59:06;;;;;;;12.32;7.00;;;25.80;99.90;;;;;;5037119;28;20041;-70
2023/06/17 12:01:32;;;;;;;10.38;7.93;;;26.00;99.90;;;;;;5053929;28;20067;-70
2023/06/17 12:03:57;;;;;;;10.63;7.47;;;25.90;99.90;;;;;;5054026;28;20044;-70
2023/06/17 12:06:23;;;;;;;11.95;8.02;;;26.10;99.90;;;;;;5053347;28;20551;-71
2023/06/17 12:09:02;;;;;;;10.57;7.50;;;26.10;99.90;;;;;;5053533;28;20048;-70
2023/06/17 12:11:35;;;;;;;10.85;6.53;;;25.80;99.90;;;;;;5053783;28;20064;-70
2023/06/17 12:14:10;;;;;;;8.60;7.15;;;26.10;99.90;;;;;;5037032;28;20056;-70
2023/06/17 12:16:38;;;;;;;9.52;7.57;;;26.00;99.90;;;;;;5053302;28;20037;-70
2023/06/17 12:19:09;;;;;;;11.82;7.60;;;26.10;99.90;;;;;;5070037;28;20045;-70
2023/06/17 12:21:36;;;;;;;12.38;7.38;;;26.30;99.90;;;;;;5053789;28;20044;-70
2023/06/17 12:24:03;;;;;;;9.85;7.00;;;26.50;99.90;;;;;;5036886;28;20098;-70
2023/06/17 12:26:29;;;;;;;11.18;6.93;;;26.30;99.90;;;;;;5069720;28;20049;-70
2023/06/17 12:28:56;;;;;;;11.98;6.38;;;;;;;;;;5036621;28;20408;-70
2023/06/17 12:31:22;;;;;;;10.82;7.30;;;26.60;98.00;;;;;;5053474;28;20045;-70
2023/06/17 12:33:48;;;;;;;11.00;6.40;;;26.30;98.70;;;;;;5053496;28;20063;-70
2023/06/17 12:36:16;;;;;;;10.90;6.43;;;26.40;97.90;;;;;;5052949;28;20047;-70